Time;durP1;ratioP1;P1;durP2;ratioP2;P2;SDS_P1;SDS_P2;PMS_P1;PMS_P2;Temp;Humidity;BMP_temperature;BMP_pressure;BME280_temperature;BME280_humidity;BME280_pressure;Samples;Min_cycle;Max_cycle;Signal;HPM_P1;HPM_P2
2021/08/10 00:01:17;;;;;;;7.28;6.22;;;13.90;99.90;;;;;;5010176;28;20069;-71
2021/08/10 00:03:43;;;;;;;7.43;5.78;;;13.90;99.90;;;;;;5022423;28;20482;-71
2021/08/10 00:06:09;;;;;;;7.05;5.60;;;14.00;99.90;;;;;;5013407;28;20077;-71
2021/08/10 00:08:35;;;;;;;6.50;5.90;;;13.90;99.90;;;;;;5018473;28;20045;-71
2021/08/10 00:11:01;;;;;;;10.27;6.45;;;14.00;99.90;;;;;;5017314;28;20038;-71
2021/08/10 00:13:27;;;;;;;6.97;6.22;;;14.00;99.90;;;;;;5031148;28;20035;-71
2021/08/10 00:15:52;;;;;;;6.75;6.00;;;14.00;99.90;;;;;;5010052;28;20050;-71
2021/08/10 00:18:19;;;;;;;10.45;7.38;;;14.00;99.90;;;;;;5012253;28;20075;-72
2021/08/10 00:20:45;;;;;;;8.27;6.30;;;14.00;99.90;;;;;;5021602;28;20046;-71
2021/08/10 00:23:10;;;;;;;9.35;7.32;;;14.00;99.90;;;;;;5020946;28;20087;-72
2021/08/10 00:25:36;;;;;;;8.65;6.55;;;14.00;99.90;;;;;;5009682;28;20042;-71
2021/08/10 00:28:02;;;;;;;7.50;6.80;;;14.00;99.90;;;;;;5009903;28;20050;-72
2021/08/10 00:30:28;;;;;;;12.45;7.50;;;14.10;99.90;;;;;;5010447;28;20061;-72
2021/08/10 00:32:54;;;;;;;7.60;6.45;;;14.00;99.90;;;;;;5009864;28;20038;-70
2021/08/10 00:35:20;;;;;;;7.47;6.75;;;14.10;99.90;;;;;;5012514;28;20134;-71
2021/08/10 00:37:46;;;;;;;8.15;7.25;;;14.10;99.90;;;;;;5010692;28;20049;-71
2021/08/10 00:40:14;;;;;;;10.52;7.80;;;14.10;99.90;;;;;;5011725;28;20034;-71
2021/08/10 00:42:39;;;;;;;14.52;7.35;;;14.10;99.90;;;;;;5012943;28;20503;-71
2021/08/10 00:45:06;;;;;;;8.93;7.03;;;14.10;99.90;;;;;;5008329;28;20041;-71
2021/08/10 00:47:32;;;;;;;8.30;7.50;;;14.20;99.90;;;;;;5014179;28;20068;-71
2021/08/10 00:49:58;;;;;;;9.07;7.53;;;14.10;99.90;;;;;;5016674;28;20069;-71
2021/08/10 00:52:23;;;;;;;11.32;7.60;;;14.10;99.90;;;;;;5014437;28;20154;-72
2021/08/10 00:54:50;;;;;;;7.78;6.72;;;14.20;99.90;;;;;;5016416;28;20038;-71
2021/08/10 00:57:15;;;;;;;10.18;7.93;;;14.20;99.90;;;;;;5011880;28;20044;-71
2021/08/10 00:59:41;;;;;;;8.93;7.82;;;14.20;99.90;;;;;;5012864;28;20396;-71
2021/08/10 01:02:07;;;;;;;10.43;8.02;;;14.30;99.90;;;;;;5009585;28;20049;-72
2021/08/10 01:04:35;;;;;;;11.50;8.10;;;14.30;99.90;;;;;;5011711;28;20113;-71
2021/08/10 01:07:19;;;;;;;11.02;7.00;;;14.30;99.90;;;;;;5010186;28;20041;-72
2021/08/10 01:09:57;;;;;;;11.43;8.68;;;14.30;99.90;;;;;;5012615;28;20082;-72
2021/08/10 01:12:37;;;;;;;10.15;8.02;;;14.30;99.90;;;;;;5032883;28;20030;-72
2021/08/10 01:15:10;;;;;;;9.30;8.10;;;14.30;99.90;;;;;;5013326;28;20050;-71
2021/08/10 01:17:45;;;;;;;9.70;8.20;;;14.30;99.90;;;;;;5035783;28;20131;-71
2021/08/10 01:20:27;;;;;;;9.43;7.15;;;14.30;99.90;;;;;;5009449;28;20038;-72
2021/08/10 01:22:54;;;;;;;11.10;8.60;;;14.30;99.90;;;;;;5005960;28;20110;-71
2021/08/10 01:25:29;;;;;;;11.10;8.30;;;14.30;99.90;;;;;;5012986;28;20042;-72
2021/08/10 01:28:22;;;;;;;10.38;7.50;;;14.30;99.90;;;;;;5009186;28;20041;-72
2021/08/10 01:30:58;;;;;;;9.10;8.00;;;14.30;99.90;;;;;;4990754;28;20121;-72
2021/08/10 01:33:27;;;;;;;10.20;8.02;;;14.30;99.90;;;;;;5010169;28;20168;-71
2021/08/10 01:35:55;;;;;;;10.48;8.32;;;14.30;99.90;;;;;;5004891;28;20530;-72
2021/08/10 01:38:23;;;;;;;11.77;8.40;;;14.30;99.90;;;;;;5024327;28;20479;-72
2021/08/10 01:40:50;;;;;;;10.52;8.60;;;14.30;99.90;;;;;;5014469;28;20046;-72
2021/08/10 01:43:16;;;;;;;10.05;8.00;;;14.30;99.90;;;;;;5030365;28;20041;-72
2021/08/10 01:45:43;;;;;;;10.45;8.35;;;14.30;99.90;;;;;;5012138;28;20053;-71
2021/08/10 01:48:12;;;;;;;10.68;8.13;;;14.30;99.90;;;;;;5022041;28;20087;-72
2021/08/10 01:50:38;;;;;;;12.02;8.27;;;14.30;99.90;;;;;;5008698;28;20069;-71
2021/08/10 01:53:06;;;;;;;13.68;8.15;;;14.30;99.90;;;;;;5009544;28;20045;-72
2021/08/10 01:55:34;;;;;;;12.80;8.55;;;14.30;99.90;;;;;;5025179;28;20490;-73
2021/08/10 01:58:01;;;;;;;10.05;7.97;;;14.30;99.90;;;;;;5015204;28;20046;-73
2021/08/10 02:00:27;;;;;;;14.63;8.32;;;14.30;99.90;;;;;;5008542;28;20061;-72
2021/08/10 02:02:53;;;;;;;10.88;8.15;;;14.30;99.90;;;;;;5018416;28;20069;-72
2021/08/10 02:05:21;;;;;;;12.02;7.78;;;14.30;99.90;;;;;;5008681;28;20046;-72
2021/08/10 02:07:48;;;;;;;9.40;8.23;;;14.20;99.90;;;;;;5008357;28;20081;-72
2021/08/10 02:10:14;;;;;;;10.50;7.95;;;14.20;99.90;;;;;;5015236;28;20034;-71
2021/08/10 02:12:40;;;;;;;11.13;8.55;;;14.20;99.90;;;;;;5016388;28;20966;-70
2021/08/10 02:15:06;;;;;;;9.95;7.68;;;14.20;99.90;;;;;;5015480;28;20039;-71
2021/08/10 02:17:32;;;;;;;9.82;8.07;;;14.20;99.90;;;;;;5006792;28;20172;-71
2021/08/10 02:19:57;;;;;;;13.05;8.30;;;14.20;99.90;;;;;;5008723;28;20116;-71
2021/08/10 02:22:23;;;;;;;11.48;7.70;;;14.20;99.90;;;;;;5010704;28;20116;-71
2021/08/10 02:24:52;;;;;;;12.10;8.00;;;14.20;99.90;;;;;;5018991;28;20044;-72
2021/08/10 02:27:36;;;;;;;9.82;7.75;;;14.20;99.90;;;;;;5007411;28;20049;-71
2021/08/10 02:30:10;;;;;;;11.10;8.27;;;14.20;99.90;;;;;;4997700;28;20496;-71
2021/08/10 02:32:38;;;;;;;12.05;8.43;;;14.20;99.90;;;;;;5006862;28;20038;-71
2021/08/10 02:35:06;;;;;;;13.05;7.80;;;14.20;99.90;;;;;;5008677;28;20126;-71
2021/08/10 02:37:33;;;;;;;10.95;7.72;;;14.20;99.90;;;;;;5008734;28;20056;-71
2021/08/10 02:40:03;;;;;;;10.02;8.23;;;14.20;99.90;;;;;;5011691;28;20042;-72
2021/08/10 02:42:29;;;;;;;10.80;7.53;;;14.20;99.90;;;;;;5008539;28;20599;-72
2021/08/10 02:44:57;;;;;;;11.32;8.60;;;14.20;99.90;;;;;;5007214;28;20034;-71
2021/08/10 02:47:25;;;;;;;10.30;7.95;;;14.20;99.90;;;;;;5007605;28;20042;-71
2021/08/10 02:49:50;;;;;;;8.77;7.30;;;14.20;99.90;;;;;;5012026;28;20034;-71
2021/08/10 02:52:16;;;;;;;9.82;7.30;;;14.20;99.90;;;;;;5013268;28;20490;-72
2021/08/10 02:54:44;;;;;;;8.40;7.28;;;14.20;99.90;;;;;;5010368;28;20140;-71
2021/08/10 02:57:27;;;;;;;9.35;7.18;;;14.20;99.90;;;;;;5008277;28;20041;-71
2021/08/10 03:00:01;;;;;;;8.55;6.57;;;14.20;99.90;;;;;;5012942;28;20038;-71
2021/08/10 03:02:40;;;;;;;10.57;7.22;;;14.20;99.90;;;;;;5009119;28;20037;-71
2021/08/10 03:05:10;;;;;;;10.40;7.72;;;14.20;99.90;;;;;;5010272;28;20099;-71
2021/08/10 03:07:39;;;;;;;11.25;7.50;;;14.20;99.90;;;;;;5015745;28;20482;-71
2021/08/10 03:10:06;;;;;;;10.88;7.30;;;14.30;99.90;;;;;;5009437;28;20103;-71
2021/08/10 03:12:37;;;;;;;10.20;7.90;;;14.30;99.90;;;;;;5008811;28;20041;-71
2021/08/10 03:15:04;;;;;;;11.70;7.55;;;14.40;99.90;;;;;;5006207;28;20463;-71
2021/08/10 03:17:33;;;;;;;13.20;7.55;;;14.40;99.90;;;;;;5007590;28;20057;-71
2021/08/10 03:20:00;;;;;;;9.98;8.13;;;14.40;99.90;;;;;;5010736;28;20048;-70
2021/08/10 03:22:28;;;;;;;10.13;6.90;;;14.40;99.90;;;;;;5007255;28;20078;-71
2021/08/10 03:24:57;;;;;;;9.02;7.10;;;14.50;99.90;;;;;;5010651;28;20034;-71
2021/08/10 03:27:23;;;;;;;13.25;7.40;;;14.50;99.90;;;;;;5006612;28;20057;-72
2021/08/10 03:29:50;;;;;;;10.68;7.93;;;14.50;99.90;;;;;;5007936;28;20065;-72
2021/08/10 03:32:16;;;;;;;11.57;7.68;;;14.60;99.90;;;;;;5011123;28;21781;-70
2021/08/10 03:34:44;;;;;;;13.18;8.63;;;14.60;99.90;;;;;;5008130;28;20060;-71
2021/08/10 03:37:11;;;;;;;10.30;8.20;;;14.60;99.90;;;;;;5008560;28;20038;-71
2021/08/10 03:39:39;;;;;;;11.73;8.13;;;14.60;99.90;;;;;;5010674;28;20144;-70
2021/08/10 03:42:05;;;;;;;10.98;7.72;;;14.70;99.90;;;;;;5012814;28;20041;-71
2021/08/10 03:44:32;;;;;;;12.48;7.97;;;14.70;99.90;;;;;;5010332;28;20030;-71
2021/08/10 03:46:58;;;;;;;10.20;8.02;;;14.70;99.90;;;;;;5010785;28;20034;-71
2021/08/10 03:49:25;;;;;;;11.35;8.65;;;14.70;99.90;;;;;;5030214;28;20034;-72
2021/08/10 03:51:51;;;;;;;8.90;7.72;;;14.70;99.90;;;;;;5011313;28;20050;-71
2021/08/10 03:54:17;;;;;;;10.32;7.68;;;14.70;99.90;;;;;;5023942;28;20422;-70
2021/08/10 03:56:46;;;;;;;10.45;8.40;;;14.60;99.90;;;;;;5009031;28;20439;-70
2021/08/10 03:59:15;;;;;;;12.52;7.38;;;14.60;99.90;;;;;;5010872;28;20053;-72
2021/08/10 04:01:42;;;;;;;10.52;7.78;;;14.50;99.90;;;;;;5009234;28;20101;-71
2021/08/10 04:04:08;;;;;;;10.27;7.93;;;14.50;99.90;;;;;;5012124;28;20065;-72
2021/08/10 04:06:36;;;;;;;11.88;8.07;;;14.50;99.90;;;;;;5011116;28;20042;-71
2021/08/10 04:09:02;;;;;;;12.48;8.70;;;14.50;99.90;;;;;;5016689;28;20469;-72
2021/08/10 04:11:29;;;;;;;12.45;8.55;;;14.50;99.90;;;;;;5010580;28;20072;-72
2021/08/10 04:13:56;;;;;;;12.05;7.72;;;14.50;99.90;;;;;;5016360;28;20026;-72
2021/08/10 04:16:23;;;;;;;13.32;8.40;;;14.50;99.90;;;;;;5009127;28;20551;-71
2021/08/10 04:18:50;;;;;;;9.52;7.45;;;14.50;99.90;;;;;;5023960;28;20106;-71
2021/08/10 04:21:24;;;;;;;9.82;7.20;;;14.50;99.90;;;;;;5011511;28;20041;-71
2021/08/10 04:23:50;;;;;;;9.90;7.75;;;14.50;99.90;;;;;;5010596;28;20106;-71
2021/08/10 04:26:15;;;;;;;11.02;8.25;;;14.50;99.90;;;;;;5009614;28;20038;-71
2021/08/10 04:28:41;;;;;;;10.80;8.65;;;14.60;99.90;;;;;;5022088;28;20492;-71
2021/08/10 04:31:07;;;;;;;12.10;8.35;;;14.60;99.90;;;;;;5016638;28;20057;-71
2021/08/10 04:33:32;;;;;;;11.00;7.88;;;14.60;99.90;;;;;;5016261;28;20083;-71
2021/08/10 04:35:58;;;;;;;12.57;8.50;;;14.60;99.90;;;;;;4997824;28;20053;-71
2021/08/10 04:38:23;;;;;;;11.57;7.53;;;14.60;99.90;;;;;;5010423;28;20038;-70
2021/08/10 04:40:49;;;;;;;10.20;8.00;;;14.60;99.90;;;;;;5012051;28;20046;-70
2021/08/10 04:43:15;;;;;;;9.25;7.05;;;14.60;99.90;;;;;;5017311;28;20155;-71
2021/08/10 04:45:40;;;;;;;12.82;8.35;;;14.70;99.90;;;;;;5011183;28;20098;-71
2021/08/10 04:48:08;;;;;;;10.80;7.50;;;14.70;99.90;;;;;;5008642;28;20536;-71
2021/08/10 04:50:34;;;;;;;10.35;7.32;;;14.80;99.90;;;;;;5008502;28;20132;-71
2021/08/10 04:52:59;;;;;;;10.48;7.75;;;14.80;99.90;;;;;;5012750;28;20128;-71
2021/08/10 04:55:25;;;;;;;11.93;8.27;;;14.80;99.90;;;;;;5016467;28;20038;-71
2021/08/10 04:57:50;;;;;;;12.27;7.03;;;14.80;99.90;;;;;;5012950;28;20093;-71
2021/08/10 05:00:17;;;;;;;8.40;7.55;;;14.90;99.90;;;;;;5007511;28;20057;-71
2021/08/10 05:02:43;;;;;;;11.27;7.43;;;14.90;99.90;;;;;;5008927;28;20045;-71
2021/08/10 05:05:09;;;;;;;9.02;7.40;;;14.90;99.90;;;;;;5009798;28;20041;-72
2021/08/10 05:07:35;;;;;;;10.18;7.80;;;14.90;99.90;;;;;;5014223;28;20524;-71
2021/08/10 05:10:02;;;;;;;10.80;8.07;;;14.90;99.90;;;;;;5008388;28;20038;-71
2021/08/10 05:12:27;;;;;;;11.43;7.50;;;15.00;99.90;;;;;;5022305;28;20423;-71
2021/08/10 05:14:53;;;;;;;13.18;8.40;;;15.00;99.90;;;;;;5018022;28;20060;-72
2021/08/10 05:17:19;;;;;;;10.23;8.13;;;15.00;99.90;;;;;;5034731;23;20471;-71
2021/08/10 05:19:44;;;;;;;9.20;7.78;;;15.00;99.90;;;;;;5005606;28;20087;-71
2021/08/10 05:22:10;;;;;;;12.27;8.35;;;15.00;99.90;;;;;;5003817;28;20061;-72
2021/08/10 05:24:36;;;;;;;11.20;8.57;;;15.00;99.90;;;;;;5018739;28;20158;-72
2021/08/10 05:27:02;;;;;;;14.10;9.00;;;15.00;99.90;;;;;;5046720;28;20042;-71
2021/08/10 05:29:27;;;;;;;10.13;8.73;;;15.00;99.90;;;;;;5009928;28;20100;-71
2021/08/10 05:31:53;;;;;;;9.77;8.65;;;15.00;99.90;;;;;;5010197;28;20466;-71
2021/08/10 05:34:19;;;;;;;12.00;8.05;;;15.00;99.90;;;;;;5008611;28;20447;-71
2021/08/10 05:36:44;;;;;;;11.27;9.10;;;15.10;99.90;;;;;;5009711;28;20391;-71
2021/08/10 05:39:10;;;;;;;11.32;9.55;;;15.10;99.90;;;;;;5007960;28;20084;-71
2021/08/10 05:41:36;;;;;;;9.45;8.40;;;15.10;99.90;;;;;;5009588;28;20505;-71
2021/08/10 05:44:02;;;;;;;9.73;8.73;;;15.10;99.90;;;;;;5009761;28;20057;-71
2021/08/10 05:46:27;;;;;;;13.93;9.98;;;15.20;99.90;;;;;;5008927;28;20030;-71
2021/08/10 05:48:53;;;;;;;14.82;9.93;;;15.30;99.90;;;;;;5009623;28;20220;-71
2021/08/10 05:51:18;;;;;;;13.43;9.48;;;15.30;99.90;;;;;;5009455;28;20037;-70
2021/08/10 05:53:44;;;;;;;12.02;9.60;;;15.40;99.90;;;;;;5009490;28;20038;-71
2021/08/10 05:56:10;;;;;;;9.50;8.60;;;15.50;99.90;;;;;;5008587;28;20042;-70
2021/08/10 05:58:35;;;;;;;13.10;9.50;;;15.50;99.90;;;;;;5009574;28;20030;-71
2021/08/10 06:01:04;;;;;;;11.25;8.98;;;15.60;99.90;;;;;;4998890;28;20047;-71
2021/08/10 06:03:30;;;;;;;9.63;7.45;;;15.70;99.90;;;;;;5001267;28;20471;-71
2021/08/10 06:05:55;;;;;;;12.27;9.40;;;15.90;99.90;;;;;;4996691;28;20096;-71
2021/08/10 06:08:21;;;;;;;9.85;8.85;;;16.00;99.90;;;;;;4989404;28;20046;-71
2021/08/10 06:10:47;;;;;;;10.43;8.77;;;16.10;99.90;;;;;;5002137;28;20040;-71
2021/08/10 06:13:12;;;;;;;12.05;9.15;;;16.20;99.90;;;;;;4995733;28;20034;-71
2021/08/10 06:15:39;;;;;;;11.07;9.13;;;16.30;99.90;;;;;;5007686;28;20038;-71
2021/08/10 06:18:05;;;;;;;9.80;8.77;;;16.40;99.90;;;;;;5008871;28;20058;-71
2021/08/10 06:20:30;;;;;;;11.23;8.98;;;16.50;99.90;;;;;;5006616;28;20042;-71
2021/08/10 06:22:56;;;;;;;9.93;8.98;;;16.60;99.90;;;;;;5007842;28;20034;-71
2021/08/10 06:25:21;;;;;;;10.32;9.23;;;16.60;99.90;;;;;;5001215;28;20383;-71
2021/08/10 06:27:47;;;;;;;10.70;8.52;;;16.70;99.90;;;;;;4991918;28;20193;-70
2021/08/10 06:30:14;;;;;;;8.93;8.02;;;16.70;99.90;;;;;;5008949;28;20034;-70
2021/08/10 06:32:40;;;;;;;10.63;8.50;;;16.80;99.90;;;;;;5008307;28;20042;-71
2021/08/10 06:35:05;;;;;;;11.15;9.45;;;16.80;99.90;;;;;;5008404;28;20034;-71
2021/08/10 06:37:31;;;;;;;10.10;9.02;;;16.70;99.90;;;;;;5006546;28;20558;-71
2021/08/10 06:39:57;;;;;;;10.18;7.68;;;16.70;99.90;;;;;;5005199;28;20421;-71
2021/08/10 06:42:22;;;;;;;10.93;9.20;;;16.60;99.90;;;;;;5003556;28;20117;-71
2021/08/10 06:44:48;;;;;;;11.70;8.60;;;16.60;99.90;;;;;;5005353;28;20475;-71
2021/08/10 06:47:15;;;;;;;10.40;9.25;;;16.60;99.90;;;;;;5003719;28;20042;-71
2021/08/10 06:49:41;;;;;;;11.98;9.80;;;16.50;99.90;;;;;;5049780;28;20116;-71
2021/08/10 06:52:09;;;;;;;8.82;8.07;;;16.40;99.90;;;;;;5007037;28;20045;-71
2021/08/10 06:54:34;;;;;;;9.88;8.38;;;16.50;99.90;;;;;;4991066;28;20050;-71
2021/08/10 06:57:05;;;;;;;9.90;8.70;;;16.50;99.90;;;;;;5006819;28;20045;-71
2021/08/10 06:59:31;;;;;;;8.98;7.78;;;16.60;99.90;;;;;;4995052;28;20066;-71
2021/08/10 07:01:57;;;;;;;8.80;7.97;;;16.70;99.90;;;;;;5015789;28;20043;-71
2021/08/10 07:04:23;;;;;;;9.68;8.63;;;16.80;99.90;;;;;;5006361;28;20087;-71
2021/08/10 07:06:49;;;;;;;9.32;8.30;;;16.90;99.90;;;;;;5008620;28;20471;-71
2021/08/10 07:09:15;;;;;;;8.10;7.30;;;17.00;99.90;;;;;;5005335;28;20050;-71
2021/08/10 07:11:42;;;;;;;9.02;7.53;;;17.10;99.90;;;;;;4996071;28;20083;-70
2021/08/10 07:14:12;;;;;;;9.43;8.15;;;17.10;99.90;;;;;;5043137;28;20050;-70
2021/08/10 07:16:40;;;;;;;8.30;7.47;;;17.10;99.90;;;;;;5018089;28;20050;-71
2021/08/10 07:19:06;;;;;;;7.90;6.95;;;17.10;99.90;;;;;;5004339;28;20100;-71
2021/08/10 07:21:31;;;;;;;8.85;6.75;;;17.10;99.90;;;;;;5002323;28;20407;-72
2021/08/10 07:23:57;;;;;;;7.13;6.47;;;17.10;99.90;;;;;;4999943;28;20038;-71
2021/08/10 07:26:23;;;;;;;8.52;7.00;;;16.90;99.90;;;;;;5004861;28;20109;-71
2021/08/10 07:28:48;;;;;;;10.80;7.03;;;16.90;99.90;;;;;;5029258;28;20040;-72
2021/08/10 07:31:14;;;;;;;7.13;6.43;;;16.70;99.90;;;;;;5026054;28;20029;-71
2021/08/10 07:33:40;;;;;;;7.15;6.50;;;16.60;99.90;;;;;;5010469;28;20106;-71
2021/08/10 07:36:06;;;;;;;9.13;6.30;;;16.60;99.90;;;;;;5012649;28;20487;-71
2021/08/10 07:38:32;;;;;;;8.45;6.32;;;16.50;99.90;;;;;;5000132;28;20045;-71
2021/08/10 07:40:58;;;;;;;9.57;7.15;;;16.50;99.90;;;;;;5012066;28;20091;-71
2021/08/10 07:43:23;;;;;;;9.27;7.18;;;16.60;99.90;;;;;;5004013;28;20038;-71
2021/08/10 07:45:49;;;;;;;8.20;6.18;;;16.50;99.90;;;;;;5008636;28;20051;-72
2021/08/10 07:48:16;;;;;;;6.13;5.53;;;16.50;99.90;;;;;;5007498;28;20038;-71
2021/08/10 07:50:41;;;;;;;6.80;6.00;;;16.50;99.90;;;;;;5010140;28;20063;-72
2021/08/10 07:53:07;;;;;;;8.35;7.15;;;16.50;99.90;;;;;;5010423;28;20046;-71
2021/08/10 07:55:35;;;;;;;8.55;7.20;;;16.50;99.90;;;;;;5052882;28;20406;-72
2021/08/10 07:58:00;;;;;;;7.70;6.68;;;16.50;99.90;;;;;;5009131;28;20038;-71
2021/08/10 08:00:26;;;;;;;7.90;6.95;;;16.40;99.90;;;;;;4995924;28;20087;-71
2021/08/10 08:02:52;;;;;;;8.40;7.60;;;16.30;99.90;;;;;;5003834;28;20042;-71
2021/08/10 08:05:18;;;;;;;9.15;8.35;;;16.30;99.90;;;;;;5063967;28;20036;-71
2021/08/10 08:07:43;;;;;;;9.70;8.32;;;16.40;99.90;;;;;;5093735;28;20123;-72
2021/08/10 08:10:10;;;;;;;10.05;8.98;;;16.40;99.90;;;;;;5012083;28;20039;-71
2021/08/10 08:12:36;;;;;;;11.20;10.07;;;16.40;99.90;;;;;;4999015;28;20038;-69
2021/08/10 08:15:01;;;;;;;14.00;9.93;;;16.50;99.90;;;;;;5009866;28;20064;-69
2021/08/10 08:17:27;;;;;;;11.18;10.02;;;16.70;99.90;;;;;;5009928;28;20050;-69
2021/08/10 08:19:52;;;;;;;11.20;10.20;;;17.00;99.90;;;;;;5011318;28;20098;-68
2021/08/10 08:22:18;;;;;;;12.88;9.93;;;17.10;99.90;;;;;;5008827;28;20046;-69
2021/08/10 08:24:44;;;;;;;12.40;9.00;;;17.30;99.90;;;;;;4994633;28;20114;-69
2021/08/10 08:27:09;;;;;;;11.18;10.02;;;17.60;99.90;;;;;;5004746;28;20326;-69
2021/08/10 08:29:35;;;;;;;12.90;11.70;;;17.90;99.90;;;;;;5009704;28;20032;-69
2021/08/10 08:32:01;;;;;;;12.48;10.52;;;18.20;99.90;;;;;;5002387;28;20476;-68
2021/08/10 08:34:26;;;;;;;14.82;12.05;;;18.60;99.90;;;;;;5009894;28;20053;-68
2021/08/10 08:36:52;;;;;;;12.48;10.85;;;19.10;99.90;;;;;;5004793;28;20081;-68
2021/08/10 08:39:17;;;;;;;13.15;10.70;;;19.30;99.90;;;;;;5006630;28;20581;-67
2021/08/10 08:41:44;;;;;;;12.20;10.30;;;19.50;99.90;;;;;;5013268;28;20045;-68
2021/08/10 08:44:10;;;;;;;15.50;10.15;;;19.70;99.90;;;;;;5009733;28;20034;-69
2021/08/10 08:46:37;;;;;;;13.23;11.23;;;19.90;99.90;;;;;;5013441;28;20053;-70
2021/08/10 08:49:05;;;;;;;11.63;10.32;;;20.10;99.90;;;;;;5009133;28;20079;-69
2021/08/10 08:51:33;;;;;;;14.60;10.98;;;20.20;99.90;;;;;;5010216;28;20034;-69
2021/08/10 08:53:59;;;;;;;13.85;11.05;;;20.30;99.90;;;;;;5010630;28;20387;-69
2021/08/10 08:56:25;;;;;;;12.48;11.13;;;20.30;99.90;;;;;;5024102;28;20493;-69
2021/08/10 08:58:52;;;;;;;15.30;10.50;;;20.30;99.90;;;;;;5000849;28;20762;-69
2021/08/10 09:01:18;;;;;;;13.40;10.02;;;20.30;99.90;;;;;;4995136;28;20366;-68
2021/08/10 09:03:44;;;;;;;12.07;10.05;;;20.50;99.90;;;;;;5012613;28;20040;-68
2021/08/10 09:06:10;;;;;;;13.77;9.52;;;20.40;99.90;;;;;;5010241;28;20459;-69
2021/08/10 09:08:40;;;;;;;14.57;10.07;;;20.30;99.90;;;;;;5013630;28;20129;-69
2021/08/10 09:11:09;;;;;;;12.20;10.93;;;20.30;99.90;;;;;;4989788;28;20039;-69
2021/08/10 09:13:40;;;;;;;9.60;8.60;;;20.20;99.90;;;;;;5003615;28;20117;-69
2021/08/10 09:16:08;;;;;;;10.30;8.30;;;20.40;99.90;;;;;;5000864;28;20043;-69
2021/08/10 09:18:38;;;;;;;10.10;8.10;;;20.40;99.90;;;;;;4999650;28;20082;-69
2021/08/10 09:21:16;;;;;;;9.10;8.00;;;20.70;99.90;;;;;;4999711;28;20080;-69
2021/08/10 09:23:53;;;;;;;10.38;6.55;;;20.80;99.90;;;;;;5004496;28;20128;-68
2021/08/10 09:26:44;;;;;;;7.60;5.60;;;20.80;99.90;;;;;;5022964;28;20055;-68
2021/08/10 09:29:10;;;;;;;5.95;5.10;;;21.00;99.90;;;;;;5006177;28;20171;-69
2021/08/10 09:31:41;;;;;;;6.88;4.78;;;21.00;99.90;;;;;;5006521;28;20121;-69
2021/08/10 09:34:21;;;;;;;5.95;4.30;;;21.10;99.90;;;;;;5009309;28;20049;-68
2021/08/10 09:36:47;;;;;;;5.72;4.38;;;21.10;99.90;;;;;;5009795;28;20042;-68
2021/08/10 09:39:14;;;;;;;5.03;4.03;;;21.20;99.90;;;;;;5008840;28;20049;-68
2021/08/10 09:41:59;;;;;;;6.35;4.40;;;21.20;99.90;;;;;;5050632;28;20485;-68
2021/08/10 09:44:24;;;;;;;5.72;4.40;;;21.30;99.90;;;;;;5063427;28;20067;-68
2021/08/10 09:46:53;;;;;;;7.03;4.60;;;21.20;99.90;;;;;;5002857;28;20042;-68
2021/08/10 09:49:20;;;;;;;5.20;3.92;;;21.40;99.90;;;;;;5003716;28;20548;-68
2021/08/10 09:51:48;;;;;;;4.78;3.63;;;21.50;99.90;;;;;;5020028;28;20045;-68
2021/08/10 09:54:15;;;;;;;8.57;4.50;;;21.60;99.90;;;;;;5076697;28;20042;-69
2021/08/10 09:56:57;;;;;;;6.68;4.38;;;21.80;99.90;;;;;;5030240;28;20103;-68
2021/08/10 09:59:38;;;;;;;8.63;4.88;;;22.00;99.90;;;;;;5003961;28;20101;-68
2021/08/10 10:02:22;;;;;;;7.60;4.40;;;21.90;99.90;;;;;;5000385;28;20034;-68
2021/08/10 10:04:54;;;;;;;6.68;4.47;;;21.60;99.90;;;;;;5008450;28;20544;-68
2021/08/10 10:07:20;;;;;;;6.85;4.18;;;21.20;99.90;;;;;;5012263;28;20398;-68
2021/08/10 10:09:46;;;;;;;6.25;4.80;;;21.00;99.90;;;;;;5000895;28;20385;-68
2021/08/10 10:12:14;;;;;;;6.15;4.38;;;20.70;99.90;;;;;;5005273;28;20038;-68
2021/08/10 10:14:40;;;;;;;10.63;4.97;;;20.60;99.90;;;;;;4989251;28;20035;-68
2021/08/10 10:17:09;;;;;;;8.75;5.47;;;20.50;99.90;;;;;;5003907;28;20574;-68
2021/08/10 10:19:36;;;;;;;8.82;5.40;;;20.40;99.90;;;;;;5008679;28;20435;-68
2021/08/10 10:22:14;;;;;;;9.80;5.68;;;20.40;99.90;;;;;;5010025;28;20503;-68
2021/08/10 10:24:46;;;;;;;8.05;5.93;;;20.30;99.90;;;;;;5009446;28;20128;-68
2021/08/10 10:27:12;;;;;;;9.80;5.57;;;20.20;99.90;;;;;;5021276;28;20885;-68
2021/08/10 10:29:40;;;;;;;9.10;4.97;;;20.20;99.90;;;;;;5015600;28;20034;-68
2021/08/10 10:32:06;;;;;;;6.05;4.70;;;20.20;99.90;;;;;;5018042;28;20032;-68
2021/08/10 10:34:35;;;;;;;8.90;4.63;;;20.20;99.90;;;;;;5013301;28;20115;-68
2021/08/10 10:37:02;;;;;;;9.07;5.30;;;20.20;99.90;;;;;;5012674;28;20030;-68
2021/08/10 10:39:37;;;;;;;7.00;4.47;;;20.30;99.90;;;;;;5046751;28;20032;-68
2021/08/10 10:42:07;;;;;;;5.63;4.30;;;20.40;99.90;;;;;;5008703;28;20038;-68
2021/08/10 10:44:45;;;;;;;6.82;4.38;;;20.50;99.90;;;;;;5002990;28;20418;-68
2021/08/10 10:47:27;;;;;;;5.45;3.70;;;20.50;99.90;;;;;;5014639;28;20075;-68
2021/08/10 10:49:56;;;;;;;4.90;4.05;;;20.50;99.90;;;;;;5007256;28;20041;-68
2021/08/10 10:52:29;;;;;;;4.50;3.72;;;20.50;99.90;;;;;;5021042;28;20036;-68
2021/08/10 10:54:55;;;;;;;5.97;3.67;;;20.60;99.90;;;;;;5001788;28;20045;-68
2021/08/10 10:57:30;;;;;;;4.63;3.47;;;20.70;99.90;;;;;;4997221;28;20046;-68
2021/08/10 11:00:20;;;;;;;5.97;3.55;;;20.70;99.90;;;;;;5010989;28;20124;-68
2021/08/10 11:03:12;;;;;;;4.93;3.70;;;20.70;99.90;;;;;;5027121;28;20486;-68
2021/08/10 11:05:39;;;;;;;4.35;3.55;;;20.80;99.90;;;;;;5008414;28;20095;-68
2021/08/10 11:08:06;;;;;;;7.43;4.03;;;20.80;99.90;;;;;;5003601;28;20046;-68
2021/08/10 11:10:41;;;;;;;8.43;4.53;;;20.70;99.90;;;;;;4999229;28;20069;-67
2021/08/10 11:13:19;;;;;;;7.65;4.32;;;20.50;99.90;;;;;;5011023;28;20115;-68
2021/08/10 11:15:44;;;;;;;7.72;4.57;;;20.60;99.90;;;;;;5008550;28;20054;-68
2021/08/10 11:18:10;;;;;;;5.90;3.67;;;20.70;99.90;;;;;;5008910;28;20053;-68
2021/08/10 11:20:40;;;;;;;4.80;3.50;;;20.70;99.90;;;;;;5010277;28;20137;-68
2021/08/10 11:23:26;;;;;;;6.45;3.50;;;20.80;99.90;;;;;;5011138;28;20042;-68
2021/08/10 11:25:58;;;;;;;4.90;3.72;;;20.80;99.90;;;;;;5016513;28;20046;-69
2021/08/10 11:28:28;;;;;;;;;;;20.90;99.90;;;;;;5002254;28;20049;-68
2021/08/10 11:30:57;;;;;;;6.35;3.72;;;21.10;99.90;;;;;;5012060;28;19917;-68
2021/08/10 11:33:42;;;;;;;5.97;3.83;;;21.20;99.90;;;;;;5096434;23;20586;-65
2021/08/10 11:36:10;;;;;;;6.15;3.75;;;21.40;99.90;;;;;;5091039;28;20691;-64
2021/08/10 11:38:52;;;;;;;4.93;3.55;;;21.80;99.90;;;;;;5092126;28;20479;-65
2021/08/10 11:41:27;;;;;;;4.55;3.53;;;21.90;99.90;;;;;;5093754;28;20392;-65
2021/08/10 11:43:58;;;;;;;5.75;4.18;;;22.20;99.90;;;;;;5092668;28;20032;-65
2021/08/10 11:46:27;;;;;;;6.00;3.83;;;22.30;99.90;;;;;;5074000;28;20028;-68
2021/08/10 11:48:56;;;;;;;4.90;3.47;;;22.10;99.90;;;;;;5093579;28;20082;-65
2021/08/10 11:51:35;;;;;;;4.63;3.45;;;22.10;99.90;;;;;;5073097;28;20094;-65
2021/08/10 11:54:17;;;;;;;5.60;3.72;;;21.90;99.90;;;;;;5087448;28;20028;-66
2021/08/10 11:56:47;;;;;;;5.45;3.63;;;21.80;99.90;;;;;;5086689;28;20181;-65
2021/08/10 11:59:18;;;;;;;5.63;3.13;;;21.70;99.90;;;;;;5088529;28;20458;-65
2021/08/10 12:01:44;;;;;;;5.28;3.20;;;21.70;99.90;;;;;;5093197;28;20028;-65
2021/08/10 12:04:13;;;;;;;4.72;3.10;;;21.70;99.90;;;;;;5090192;28;20649;-65
2021/08/10 12:06:40;;;;;;;5.15;3.50;;;21.60;99.90;;;;;;5092384;28;20463;-66
2021/08/10 12:09:07;;;;;;;4.80;3.20;;;21.60;99.90;;;;;;5091507;28;20036;-66
2021/08/10 12:11:33;;;;;;;4.05;3.03;;;21.90;99.90;;;;;;5082733;28;20506;-66
2021/08/10 12:14:22;;;;;;;3.90;2.80;;;22.10;99.50;;;;;;5071651;28;20040;-65
2021/08/10 12:16:58;;;;;;;4.95;3.33;;;22.20;99.70;;;;;;5085331;28;20037;-64
2021/08/10 12:19:31;;;;;;;4.57;3.40;;;22.40;99.90;;;;;;5090949;28;20036;-66
2021/08/10 12:21:57;;;;;;;5.57;3.80;;;22.50;99.90;;;;;;5092690;28;20028;-66
2021/08/10 12:24:26;;;;;;;5.53;4.13;;;22.60;99.50;;;;;;5089840;28;20365;-66
2021/08/10 12:26:52;;;;;;;5.35;3.97;;;22.70;99.90;;;;;;5089649;28;20060;-66
2021/08/10 12:29:18;;;;;;;4.65;3.13;;;22.70;99.50;;;;;;5087530;28;20032;-65
2021/08/10 12:31:45;;;;;;;4.45;3.40;;;22.70;98.50;;;;;;5087372;28;20056;-65
2021/08/10 12:34:11;;;;;;;5.93;3.25;;;22.70;99.90;;;;;;5092788;28;20507;-66
2021/08/10 12:36:52;;;;;;;3.28;2.40;;;22.80;99.00;;;;;;5063911;28;20028;-64
2021/08/10 12:39:18;;;;;;;5.85;2.92;;;22.90;99.40;;;;;;5081329;28;20044;-64
2021/08/10 12:41:45;;;;;;;3.72;2.40;;;22.90;97.90;;;;;;5082566;28;20051;-64
2021/08/10 12:44:10;;;;;;;3.65;2.60;;;22.90;98.40;;;;;;5091899;28;20378;-64
2021/08/10 12:46:37;;;;;;;3.28;2.72;;;22.70;98.00;;;;;;5090290;28;20077;-64